KMVE/MVE METAR and TAF weather

Enter ICAO airport designator
Station Type Date Time Source
KMVE METAR 2020/06/06 21:35 UTC NOAA

KMVE 062135Z AUTO 16018G21KT 10SM VCTS CLR 26/01 A2996 RMK AO2 LTG DSNT N AND NE


Station Type Date Time Source
KMVE Decoded METAR 2020/06/06 21:35 UTC NOAA

Montevideo, Montevideo-Chippewa County Airport, MN, United States (KMVE) 44-58N 095-43W
Jun 06, 2020 - 05:35 PM EDT / 2020.06.06 2135 UTC
Wind: from the SSE (160 degrees) at 21 MPH (18 KT) gusting to 24 MPH (21 KT):0
Visibility: 10 mile(s):0
Sky conditions: clear
Weather: thunder in the vicinity; Lightning observed
Temperature: 78 F (26 C)
Dew Point: 33 F (1 C)
Relative Humidity: 19%
Pressure (altimeter): 29.96 in. Hg (1014 hPa)
ob: KMVE 062135Z AUTO 16018G21KT 10SM VCTS CLR 26/01 A2996 RMK AO2 LTG DSNT N AND NE
cycle: 21

Station Type Date Time Source
KMVE TAF UTC NOAA

Error!

Example: see airport list